This is the latest recevied weather packets stored in our database for station/object OK1LPD-6. If no packets are shown the sender has not sent any weather packets the latest 10 day(s).
| Time | Temp. | Humidity | Pressure | Rain* | Wind** | Luminosity | Snow |
|---|---|---|---|---|---|---|---|
| 1787595966 | 17.78° C | 53% | 1019.4 hPa | 0 mm | - | - | - |
| 1787595386 | 18.33° C | 52% | 1019.6 hPa | 0 mm | - | - | - |
| 1787594766 | 19.44° C | 47% | 1019.5 hPa | 0 mm | - | - | - |
| 1787594167 | 19.44° C | 47% | 1019.6 hPa | 0 mm | - | - | - |
| 1787593582 | 20° C | 45% | 1019.8 hPa | 0 mm | - | - | - |
| 1787592967 | 20.56° C | 44% | 1019.6 hPa | 0 mm | - | - | - |
| 1787592367 | 20.56° C | 43% | 1019.7 hPa | 0 mm | - | - | - |
| 1787591779 | 21.11° C | 41% | 1019.6 hPa | 0 mm | - | - | - |
| 1787591167 | 21.67° C | 40% | 1019.7 hPa | 0 mm | - | - | - |
| 1787590566 | 22.22° C | 40% | 1019.9 hPa | 0 mm | - | - | - |
| 1787589977 | 22.22° C | 40% | 1020 hPa | 0 mm | - | - | - |
| 1787589367 | 22.22° C | 40% | 1020 hPa | 0 mm | - | - | - |
| 1787588767 | 22.78° C | 34% | 1020.1 hPa | 0 mm | - | - | - |
| 1787588178 | 23.33° C | 33% | 1020.2 hPa | 0 mm | - | - | - |
| 1787587568 | 23.33° C | 32% | 1020.2 hPa | 0 mm | - | - | - |
| 1787586968 | 23.33° C | 33% | 1020.4 hPa | 0 mm | - | - | - |
| 1787586378 | 23.33° C | 33% | 1020.6 hPa | 0 mm | - | - | - |
| 1787585767 | 23.33° C | 33% | 1020.5 hPa | 0 mm | - | - | - |
| 1787585168 | 23.33° C | 33% | 1020.9 hPa | 0 mm | - | - | - |
| 1787584582 | 23.33° C | 33% | 1020.9 hPa | 0 mm | - | - | - |
| 1787583967 | 23.33° C | 33% | 1021.1 hPa | 0 mm | - | - | - |
| 1787583368 | 23.33° C | 35% | 1020.9 hPa | 0 mm | - | - | - |
| 1787582778 | 23.33° C | 35% | 1021 hPa | 0 mm | - | - | - |
| 1787582168 | 23.33° C | 33% | 1020.9 hPa | 0 mm | - | - | - |
| 1787581568 | 23.33° C | 34% | 1021.2 hPa | 0 mm | - | - | - |
* Rain latest hour (hover to see other rain measurements)
** Current wind speed in m/s (hover to see current wind gust speed)